.
WxDataArchive / Data Records for 2015-07-10
2015-07-09 July 2015 2015-07-11

Data Records for Friday, 10 July 2015

Time	Temp	Chill	HIndex	Humid	Dewpt	 Wind 	HiWind	WindDir	Rain 	Barom
-----	----	-----	------	-----	-----	------	------	-------	-----	-----
00:00	66.6	66.6	66.6	83	61.3	0	1	270	0.00	30.022 
00:05	66.6	66.6	66.6	82	60.9	0	0	---	0.00	30.022 
00:10	66.8	66.8	66.8	81	60.8	0	0	---	0.00	30.022 
00:15	66.8	66.8	66.8	81	60.8	0	0	---	0.00	30.021 
00:20	66.8	66.8	66.8	81	60.8	0	1	270	0.00	30.021 
00:25	66.8	66.8	66.8	82	61.1	0	0	---	0.00	30.021 
00:30	66.8	66.8	66.8	82	61.1	0	0	---	0.00	30.021 
00:35	66.6	66.6	66.6	82	60.9	0	0	---	0.00	30.021 
00:40	66.4	66.4	66.4	83	61.1	0	0	---	0.00	30.021 
00:45	66.4	66.4	66.4	83	61.1	0	0	---	0.00	30.020 
00:50	66.3	66.3	66.3	83	61.0	0	0	---	0.00	30.020 
00:55	66.3	66.3	66.3	84	61.3	0	0	---	0.00	30.020 
01:00	66.1	66.1	66.1	84	61.1	0	0	---	0.00	30.021 
01:05	66.0	66.0	66.0	84	61.0	0	0	---	0.00	30.021 
01:10	65.8	65.8	65.8	84	60.8	0	0	---	0.00	30.021 
01:15	65.6	65.6	65.6	84	60.6	0	0	---	0.00	30.020 
01:20	65.5	65.5	65.5	85	60.9	0	0	---	0.00	30.020 
01:25	65.3	65.3	65.3	85	60.7	0	0	---	0.00	30.020 
01:30	65.3	65.3	65.3	85	60.7	0	0	---	0.00	30.023 
01:35	65.2	65.2	65.2	85	60.6	0	0	---	0.00	30.023 
01:40	65.2	65.2	65.2	86	60.9	0	0	---	0.00	30.023 
01:45	65.0	65.0	65.0	86	60.7	0	0	---	0.00	30.025 
01:50	65.0	65.0	65.0	86	60.7	0	0	---	0.00	30.025 
01:55	64.8	64.8	64.8	86	60.5	0	0	---	0.00	30.025 
02:00	64.7	64.7	64.7	86	60.4	0	0	---	0.00	30.024 
02:05	64.7	64.7	64.7	87	60.7	0	0	---	0.00	30.024 
02:10	64.5	64.5	64.5	87	60.5	0	0	---	0.00	30.024 
02:15	64.3	64.3	64.3	87	60.3	0	0	---	0.00	30.027 
02:20	64.2	64.2	64.2	87	60.2	0	0	---	0.00	30.027 
02:25	64.2	64.2	64.2	87	60.2	0	0	---	0.00	30.027 
02:30	64.2	64.2	64.2	87	60.2	0	0	---	0.00	30.025 
02:35	64.0	64.0	64.0	87	60.0	0	0	---	0.00	30.025 
02:40	63.9	63.9	63.9	87	59.9	0	0	---	0.00	30.025 
02:45	63.7	63.7	63.7	87	59.8	0	0	---	0.00	30.025 
02:50	63.7	63.7	63.7	87	59.8	0	0	---	0.00	30.025 
02:55	63.5	63.5	63.5	87	59.6	0	0	---	0.00	30.025 
03:00	63.4	63.4	63.4	87	59.5	0	0	---	0.00	30.030 
03:05	63.2	63.2	63.2	88	59.6	0	0	---	0.00	30.030 
03:10	63.2	63.2	63.2	88	59.6	0	0	---	0.00	30.030 
03:15	63.1	63.1	63.1	88	59.5	0	0	---	0.00	30.029 
03:20	62.9	62.9	62.9	88	59.3	0	0	---	0.00	30.029 
03:25	62.7	62.7	62.7	88	59.1	0	0	---	0.00	30.029 
03:30	62.7	62.7	62.7	88	59.1	0	0	---	0.00	30.033 
03:35	62.6	62.6	62.6	88	59.0	0	0	---	0.00	30.033 
03:40	62.6	62.6	62.6	88	59.0	0	0	---	0.00	30.033 
03:45	62.4	62.4	62.4	89	59.1	0	0	---	0.00	30.030 
03:50	62.4	62.4	62.4	89	59.1	0	0	---	0.00	30.030 
03:55	62.3	62.3	62.3	89	59.0	0	0	---	0.00	30.030 
04:00	62.3	62.3	62.3	89	59.0	0	0	---	0.00	30.035 
04:05	62.3	62.3	62.3	90	59.3	0	0	---	0.00	30.035 
04:10	62.3	62.3	62.3	90	59.3	0	0	---	0.00	30.035 
04:15	62.3	62.3	62.3	90	59.3	0	0	---	0.00	30.034 
04:20	62.3	62.3	62.3	90	59.3	0	0	---	0.00	30.034 
04:25	62.3	62.3	62.3	90	59.3	0	0	---	0.00	30.034 
04:30	62.3	62.3	62.3	90	59.3	0	0	---	0.00	30.040 
04:35	62.3	62.3	62.3	90	59.3	0	0	---	0.00	30.040 
04:40	62.3	62.3	62.3	90	59.3	0	0	---	0.00	30.040 
04:45	62.3	62.3	62.3	90	59.3	0	0	---	0.00	30.036 
04:50	62.3	62.3	62.3	90	59.3	0	0	---	0.00	30.036 
04:55	62.3	62.3	62.3	90	59.3	0	0	---	0.00	30.036 
05:00	62.1	62.1	62.1	90	59.1	0	0	---	0.00	30.037 
05:05	62.1	62.1	62.1	90	59.1	0	0	---	0.00	30.037 
05:10	62.0	62.0	62.0	90	59.0	0	0	---	0.00	30.037 
05:15	62.0	62.0	62.0	90	59.0	0	0	---	0.00	30.040 
05:20	61.8	61.8	61.8	90	58.8	0	0	---	0.00	30.040 
05:25	61.8	61.8	61.8	90	58.8	0	0	---	0.00	30.040 
05:30	61.8	61.8	61.8	90	58.8	0	0	---	0.00	30.042 
05:35	61.6	61.6	61.6	90	58.6	0	0	---	0.00	30.042 
05:40	61.6	61.6	61.6	91	58.9	0	0	---	0.00	30.042 
05:45	61.6	61.6	61.6	91	58.9	0	0	---	0.00	30.044 
05:50	61.6	61.6	61.6	91	58.9	0	0	---	0.00	30.044 
05:55	61.6	61.6	61.6	91	58.9	0	0	---	0.00	30.044 
06:00	61.6	61.6	61.6	91	58.9	0	0	---	0.00	30.052 
06:05	61.6	61.6	61.6	91	58.9	0	0	---	0.00	30.052 
06:10	61.6	61.6	61.6	91	58.9	0	0	---	0.00	30.052 
06:15	61.6	61.6	61.6	91	58.9	0	0	---	0.00	30.056 
06:20	61.6	61.6	61.6	91	58.9	0	0	---	0.00	30.056 
06:25	61.6	61.6	61.6	91	58.9	0	0	---	0.00	30.056 
06:30	61.6	61.6	61.6	91	58.9	0	0	---	0.00	30.062 
06:35	61.6	61.6	61.6	91	58.9	0	0	---	0.00	30.062 
06:40	61.6	61.6	61.6	91	58.9	0	0	---	0.00	30.062 
06:45	61.6	61.6	61.6	90	58.6	0	0	---	0.00	30.073 
06:50	61.5	61.5	61.5	90	58.5	0	1	270	0.00	30.073 
06:55	61.6	61.6	61.6	90	58.6	0	0	---	0.00	30.073 
07:00	61.6	61.6	61.6	89	58.3	0	0	---	0.00	30.078 
07:05	61.6	61.6	61.6	89	58.3	0	1	270	0.00	30.078 
07:10	61.6	61.6	61.6	89	58.3	0	0	---	0.00	30.078 
07:15	61.6	61.6	61.6	88	58.0	0	0	---	0.00	30.083 
07:20	61.6	61.6	61.6	88	58.0	0	1	270	0.00	30.083 
07:25	61.6	61.6	61.6	88	58.0	0	0	---	0.00	30.083 
07:30	61.6	61.6	61.6	88	58.0	0	1	292	0.00	30.085 
07:35	61.6	61.6	61.6	87	57.7	0	2	292	0.00	30.085 
07:40	61.6	61.6	61.6	87	57.7	0	0	---	0.00	30.085 
07:45	61.6	61.6	61.6	87	57.7	0	1	270	0.00	30.087 
07:50	61.8	61.8	61.8	87	57.9	0	0	---	0.00	30.087 
07:55	61.8	61.8	61.8	86	57.6	0	1	270	0.00	30.087 
08:00	61.8	61.8	61.8	85	57.2	0	0	---	0.00	30.089 
08:05	62.0	62.0	62.0	85	57.4	0	0	---	0.00	30.089 
08:10	62.3	62.3	62.3	85	57.7	0	0	---	0.00	30.089 
08:15	62.3	62.3	62.3	84	57.4	0	0	---	0.00	30.092 
08:20	62.4	62.4	62.4	84	57.5	0	0	---	0.00	30.092 
08:25	62.6	62.6	62.6	84	57.7	0	1	270	0.00	30.092 
08:30	62.7	62.7	62.7	83	57.5	0	1	270	0.00	30.091 
08:35	62.9	62.9	62.9	82	57.3	0	1	270	0.00	30.091 
08:40	63.1	63.1	63.1	82	57.5	0	2	270	0.00	30.091 
08:45	63.4	63.4	63.4	82	57.8	0	1	270	0.00	30.094 
08:50	63.4	63.4	63.4	81	57.5	0	1	270	0.00	30.094 
08:55	63.5	63.5	63.5	81	57.6	0	0	---	0.00	30.094 
09:00	63.9	63.9	63.9	82	58.3	0	1	270	0.00	30.100 
09:05	64.0	64.0	64.0	81	58.0	0	1	270	0.00	30.100 
09:10	64.2	64.2	64.2	79	57.5	0	2	270	0.00	30.100 
09:15	64.3	64.3	64.3	79	57.6	0	2	270	0.00	30.099 
09:20	64.3	64.3	64.3	79	57.6	0	2	270	0.00	30.099 
09:25	64.3	64.3	64.3	78	57.3	0	1	270	0.00	30.099 
09:30	64.5	64.5	64.5	78	57.5	0	0	---	0.00	30.098 
09:35	64.5	64.5	64.5	78	57.5	0	1	270	0.00	30.098 
09:40	64.7	64.7	64.7	78	57.7	0	0	---	0.00	30.098 
09:45	64.8	64.8	64.8	78	57.8	0	1	270	0.00	30.098 
09:50	65.2	65.2	65.2	77	57.8	0	1	270	0.00	30.098 
09:55	65.6	65.6	65.6	77	58.2	0	1	270	0.00	30.098 
10:00	66.3	66.3	66.3	74	57.8	0	3	270	0.00	30.098 
10:05	66.9	66.9	66.9	76	59.1	0	3	270	0.00	30.098 
10:10	67.4	67.4	67.4	73	58.4	0	2	270	0.00	30.098 
10:15	67.3	67.3	67.3	71	57.6	0	1	270	0.00	30.096 
10:20	67.6	67.6	67.6	71	57.9	0	1	270	0.00	30.096 
10:25	68.3	68.3	68.3	70	58.1	0	2	270	0.00	30.096 
10:30	68.6	68.6	68.6	70	58.4	0	2	270	0.00	30.093 
10:35	69.1	69.1	69.1	68	58.1	0	2	270	0.00	30.093 
10:40	69.4	69.4	69.4	68	58.4	0	2	270	0.00	30.093 
10:45	69.8	69.8	69.8	69	59.2	0	2	270	0.00	30.092 
10:50	70.3	70.3	70.3	68	59.2	0	3	270	0.00	30.092 
10:55	70.4	70.4	70.4	68	59.3	0	2	270	0.00	30.092 
11:00	71.1	71.1	71.1	66	59.2	0	1	270	0.00	30.093 
11:05	70.9	70.9	70.9	65	58.5	0	2	270	0.00	30.093 
11:10	71.1	71.1	71.1	65	58.7	0	0	---	0.00	30.093 
11:15	70.8	70.8	70.8	60	56.2	0	2	270	0.00	30.088 
11:20	71.1	71.1	71.1	67	59.6	0	1	270	0.00	30.088 
11:25	71.6	71.6	71.6	66	59.6	0	1	270	0.00	30.088 
11:30	72.1	72.1	72.1	64	59.2	0	2	270	0.00	30.093 
11:35	72.1	72.1	72.1	65	59.7	0	3	270	0.00	30.093 
11:40	72.1	72.1	72.1	62	58.3	1	3	270	0.00	30.093 
11:45	71.8	71.8	71.8	62	58.1	0	1	270	0.00	30.097 
11:50	71.8	71.8	71.8	62	58.1	0	3	270	0.00	30.097 
11:55	71.5	71.5	71.5	62	57.8	0	2	270	0.00	30.097 
12:00	71.3	71.3	71.3	65	58.9	0	2	270	0.00	30.092 
12:05	71.5	71.5	71.5	64	58.7	0	1	270	0.00	30.092 
12:10	71.6	71.6	71.6	62	57.9	0	3	270	0.00	30.092 
12:15	72.0	72.0	72.0	61	57.8	0	2	270	0.00	30.093 
12:20	72.0	72.0	72.0	61	57.8	0	1	270	0.00	30.093 
12:25	72.0	72.0	72.0	62	58.3	0	0	---	0.00	30.093 
12:30	72.1	72.1	72.1	61	57.9	0	1	270	0.00	30.088 
12:35	72.5	72.5	72.5	59	57.3	0	1	270	0.00	30.088 
12:40	72.5	72.5	72.5	58	56.9	0	1	270	0.00	30.088 
12:45	72.7	72.7	72.7	62	58.9	0	1	270	0.00	30.090 
12:50	72.5	72.5	72.5	60	57.8	0	2	270	0.00	30.090 
12:55	72.3	72.3	72.3	63	59.0	1	3	270	0.00	30.090 
13:00	72.1	72.1	72.1	61	57.9	1	4	270	0.00	30.090 
13:05	72.3	72.3	72.3	63	59.0	0	1	270	0.00	30.090 
13:10	72.5	72.5	72.5	60	57.8	0	1	270	0.00	30.090 
13:15	72.7	72.7	72.7	62	58.9	0	1	270	0.00	30.089 
13:20	73.0	73.0	73.0	60	58.3	0	1	270	0.00	30.089 
13:25	73.2	73.2	73.2	62	59.4	0	1	270	0.00	30.089 
13:30	73.0	73.0	73.0	59	57.8	0	3	270	0.00	30.081 
13:35	73.0	73.0	73.0	61	58.7	0	2	270	0.00	30.081 
13:40	72.7	72.7	72.7	61	58.5	0	1	270	0.00	30.081 
13:45	72.8	72.8	72.8	63	59.5	0	2	270	0.00	30.082 
13:50	73.0	73.0	73.0	60	58.3	0	2	270	0.00	30.082 
13:55	73.2	73.2	73.2	60	58.5	0	1	270	0.00	30.082 
14:00	73.2	73.2	73.2	59	58.0	0	2	270	0.00	30.082 
14:05	73.2	73.2	73.2	60	58.5	0	0	---	0.00	30.082 
14:10	73.3	73.3	73.3	61	59.0	0	0	---	0.00	30.082 
14:15	73.7	73.7	73.7	63	60.3	0	1	270	0.00	30.080 
14:20	73.9	73.9	73.9	60	59.1	0	1	270	0.00	30.080 
14:25	73.7	73.7	73.7	59	58.5	0	1	270	0.00	30.080 
14:30	73.9	73.9	73.9	63	60.5	0	1	270	0.00	30.081 
14:35	73.9	73.9	73.9	62	60.0	1	3	270	0.00	30.081 
14:40	73.2	73.2	73.2	60	58.5	2	3	270	0.00	30.081 
14:45	72.8	72.8	72.8	63	59.5	0	1	270	0.00	30.082 
14:50	72.8	72.8	72.8	62	59.0	0	1	270	0.00	30.082 
14:55	73.2	73.2	73.2	64	60.3	0	1	270	0.00	30.082 
15:00	73.3	73.3	73.3	62	59.5	0	1	270	0.00	30.083 
15:05	73.3	73.3	73.3	63	59.9	0	1	270	0.00	30.083 
15:10	73.3	73.3	73.3	62	59.5	0	0	---	0.00	30.083 
15:15	73.3	73.3	73.3	59	58.1	0	1	270	0.00	30.075 
15:20	73.3	73.3	73.3	60	58.6	0	0	---	0.00	30.075 
15:25	73.5	73.5	73.5	62	59.7	0	1	22	0.00	30.075 
15:30	73.5	73.5	73.5	61	59.2	0	0	---	0.00	30.071 
15:35	73.5	73.5	73.5	61	59.2	0	0	---	0.00	30.071 
15:40	73.5	73.5	73.5	61	59.2	0	0	---	0.00	30.071 
15:45	73.7	73.7	73.7	59	58.5	0	0	---	0.00	30.070 
15:50	73.7	73.7	73.7	61	59.4	0	1	22	0.00	30.070 
15:55	73.3	73.3	73.3	60	58.6	0	1	22	0.00	30.070 
16:00	73.3	73.3	73.3	61	59.0	0	1	22	0.00	30.072 
16:05	73.3	73.3	73.3	62	59.5	0	1	22	0.00	30.072 
16:10	73.3	73.3	73.3	62	59.5	0	0	---	0.00	30.072 
16:15	73.0	73.0	73.0	60	58.3	0	1	22	0.00	30.072 
16:20	73.0	73.0	73.0	61	58.7	0	2	22	0.00	30.072 
16:25	73.0	73.0	73.0	59	57.8	0	1	22	0.00	30.072 
16:30	73.0	73.0	73.0	58	57.3	0	1	22	0.00	30.072 
16:35	73.0	73.0	73.0	58	57.3	0	1	22	0.00	30.072 
16:40	72.8	72.8	72.8	60	58.1	0	2	22	0.00	30.072 
16:45	72.8	72.8	72.8	59	57.6	0	0	---	0.00	30.070 
16:50	72.8	72.8	72.8	59	57.6	0	1	22	0.00	30.070 
16:55	72.8	72.8	72.8	59	57.6	0	0	---	0.00	30.070 
17:00	73.0	73.0	73.0	59	57.8	0	1	22	0.00	30.070 
17:05	73.0	73.0	73.0	58	57.3	0	0	---	0.00	30.070 
17:10	73.2	73.2	73.2	58	57.5	0	0	---	0.00	30.070 
17:15	73.5	73.5	73.5	57	57.3	0	1	22	0.00	30.070 
17:20	73.9	73.9	73.9	57	57.7	0	1	22	0.00	30.070 
17:25	74.4	74.4	74.4	55	57.2	0	1	22	0.00	30.070 
17:30	74.7	74.7	74.7	54	56.9	1	3	45	0.00	30.061 
17:35	74.9	74.9	74.9	54	57.1	0	1	45	0.00	30.061 
17:40	74.9	74.9	74.9	53	56.6	0	2	45	0.00	30.061 
17:45	75.1	75.1	77.6	52	56.3	0	0	---	0.00	30.061 
17:50	75.1	75.1	77.7	51	55.7	0	2	45	0.00	30.061 
17:55	74.7	74.7	74.7	53	56.4	0	1	45	0.00	30.061 
18:00	74.2	74.2	74.2	55	57.0	0	0	---	0.00	30.055 
18:05	74.0	74.0	74.0	56	57.3	0	0	---	0.00	30.055 
18:10	73.9	73.9	73.9	59	58.7	0	1	45	0.00	30.055 
18:15	73.9	73.9	73.9	57	57.7	0	2	45	0.00	30.057 
18:20	73.9	73.9	73.9	55	56.7	0	3	45	0.00	30.057 
18:25	73.9	73.9	73.9	57	57.7	0	2	45	0.00	30.057 
18:30	73.9	73.9	73.9	56	57.2	1	3	45	0.00	30.055 
18:35	73.7	73.7	73.7	56	57.0	0	0	---	0.00	30.055 
18:40	73.9	73.9	73.9	58	58.2	0	0	---	0.00	30.055 
18:45	73.7	73.7	73.7	57	57.5	0	0	---	0.00	30.052 
18:50	73.7	73.7	73.7	58	58.0	0	0	---	0.00	30.052 
18:55	73.5	73.5	73.5	57	57.3	0	1	45	0.00	30.052 
19:00	73.5	73.5	73.5	58	57.8	0	0	---	0.00	30.051 
19:05	73.5	73.5	73.5	58	57.8	0	0	---	0.00	30.051 
19:10	73.7	73.7	73.7	59	58.5	0	0	---	0.00	30.051 
19:15	73.9	73.9	73.9	57	57.7	0	1	45	0.00	30.053 
19:20	74.0	74.0	74.0	56	57.3	0	1	45	0.00	30.053 
19:25	74.0	74.0	74.0	57	57.8	0	0	---	0.00	30.053 
19:30	74.2	74.2	74.2	58	58.5	0	1	45	0.00	30.053 
19:35	74.2	74.2	74.2	57	58.0	0	0	---	0.00	30.053 
19:40	74.2	74.2	74.2	58	58.5	0	1	45	0.00	30.053 
19:45	74.0	74.0	74.0	58	58.3	0	1	45	0.00	30.050 
19:50	73.9	73.9	73.9	58	58.2	0	1	45	0.00	30.050 
19:55	73.7	73.7	73.7	58	58.0	0	0	---	0.00	30.050 
20:00	73.5	73.5	73.5	60	58.7	0	0	---	0.00	30.047 
20:05	73.3	73.3	73.3	60	58.6	0	0	---	0.00	30.047 
20:10	73.2	73.2	73.2	62	59.4	0	0	---	0.00	30.047 
20:15	73.0	73.0	73.0	61	58.7	0	0	---	0.00	30.052 
20:20	72.8	72.8	72.8	62	59.0	0	0	---	0.00	30.052 
20:25	72.7	72.7	72.7	63	59.4	0	0	---	0.00	30.052 
20:30	72.5	72.5	72.5	63	59.2	0	0	---	0.00	30.055 
20:35	72.3	72.3	72.3	63	59.0	0	0	---	0.00	30.055 
20:40	72.0	72.0	72.0	64	59.1	0	0	---	0.00	30.055 
20:45	71.8	71.8	71.8	65	59.4	0	0	---	0.00	30.060 
20:50	71.5	71.5	71.5	65	59.1	0	0	---	0.00	30.060 
20:55	70.9	70.9	70.9	66	59.0	0	0	---	0.00	30.060 
21:00	70.8	70.8	70.8	67	59.3	0	0	---	0.00	30.064 
21:05	70.4	70.4	70.4	68	59.3	0	0	---	0.00	30.064 
21:10	69.9	69.9	69.9	70	59.7	0	0	---	0.00	30.064 
21:15	69.4	69.4	69.4	70	59.2	0	0	---	0.00	30.066 
21:20	69.1	69.1	69.1	72	59.7	0	0	---	0.00	30.066 
21:25	68.8	68.8	68.8	73	59.8	0	0	---	0.00	30.066 
21:30	68.3	68.3	68.3	76	60.4	0	0	---	0.00	30.070 
21:35	68.1	68.1	68.1	76	60.2	0	0	---	0.00	30.070 
21:40	67.8	67.8	67.8	77	60.3	0	0	---	0.00	30.070 
21:45	67.4	67.4	67.4	78	60.3	0	0	---	0.00	30.071 
21:50	67.3	67.3	67.3	78	60.2	0	0	---	0.00	30.071 
21:55	66.9	66.9	66.9	79	60.2	0	0	---	0.00	30.071 
22:00	66.8	66.8	66.8	80	60.4	0	0	---	0.00	30.082 
22:05	66.4	66.4	66.4	81	60.4	0	0	---	0.00	30.082 
22:10	66.1	66.1	66.1	81	60.1	0	0	---	0.00	30.082 
22:15	65.8	65.8	65.8	82	60.1	0	0	---	0.00	30.084 
22:20	65.6	65.6	65.6	82	59.9	0	0	---	0.00	30.084 
22:25	65.3	65.3	65.3	83	60.0	0	0	---	0.00	30.084 
22:30	65.2	65.2	65.2	83	59.9	0	0	---	0.00	30.091 
22:35	64.8	64.8	64.8	83	59.5	0	0	---	0.00	30.091 
22:40	64.7	64.7	64.7	84	59.7	0	0	---	0.00	30.091 
22:45	64.5	64.5	64.5	84	59.6	0	0	---	0.00	30.099 
22:50	64.3	64.3	64.3	84	59.4	0	0	---	0.00	30.099 
22:55	64.3	64.3	64.3	85	59.7	0	0	---	0.00	30.099 
23:00	64.2	64.2	64.2	85	59.6	0	0	---	0.00	30.103 
23:05	64.0	64.0	64.0	85	59.4	0	0	---	0.00	30.103 
23:10	63.9	63.9	63.9	86	59.6	0	0	---	0.00	30.103 
23:15	63.9	63.9	63.9	86	59.6	0	0	---	0.00	30.102 
23:20	63.7	63.7	63.7	86	59.4	0	0	---	0.00	30.102 
23:25	63.5	63.5	63.5	87	59.6	0	0	---	0.00	30.102 
23:30	63.4	63.4	63.4	87	59.5	0	0	---	0.00	30.102 
23:35	63.2	63.2	63.2	87	59.3	0	0	---	0.00	30.102 
23:40	63.1	63.1	63.1	88	59.5	0	0	---	0.00	30.102 
23:45	63.1	63.1	63.1	88	59.5	0	0	---	0.00	30.102 
23:50	62.9	62.9	62.9	88	59.3	0	0	---	0.00	30.102 
23:55	62.7	62.7	62.7	88	59.1	0	0	---	0.00	30.102 

CoCoRaHS
IN-AL-39
A2 Web Hosting
Creative Commons License
GoDaddy
search engine by freefind advanced

loaded 2018-11-17 19:24:02 • last modified 2010-11-18 10:43:29
Privacy PolicyDisclaimer
• wx.awcolley.com is powered by PmWiki v.2002016 •
• all content (unless otherwise noted) © 2018 A W Colley